Time;durP1;ratioP1;P1;durP2;ratioP2;P2;SDS_P1;SDS_P2;PMS_P1;PMS_P2;Temp;Humidity;BMP_temperature;BMP_pressure;BME280_temperature;BME280_humidity;BME280_pressure;Samples;Min_cycle;Max_cycle;Signal;HPM_P1;HPM_P2
2022/05/20 00:01:20;;;;;;;7.30;1.70;;;14.10;99.90;;;;;;5073827;28;20225;-69
2022/05/20 00:03:47;;;;;;;7.00;1.47;;;14.30;99.90;;;;;;5074087;28;20213;-69
2022/05/20 00:06:15;;;;;;;6.60;1.80;;;14.70;99.90;;;;;;5074064;28;20182;-68
2022/05/20 00:08:43;;;;;;;9.43;1.67;;;14.90;99.90;;;;;;5073887;28;20619;-69
2022/05/20 00:11:10;;;;;;;7.63;1.70;;;14.90;99.90;;;;;;5073886;28;20237;-69
2022/05/20 00:13:38;;;;;;;8.33;1.20;;;14.90;99.90;;;;;;5073648;28;20257;-69
2022/05/20 00:16:05;;;;;;;3.73;1.17;;;15.10;99.90;;;;;;5073646;28;20521;-69
2022/05/20 00:18:33;;;;;;;5.10;1.53;;;15.20;99.90;;;;;;5073428;28;20199;-69
2022/05/20 00:21:00;;;;;;;4.90;1.70;;;15.20;99.90;;;;;;5073865;28;20207;-69
2022/05/20 00:23:27;;;;;;;7.60;1.53;;;15.30;99.90;;;;;;5073447;28;20180;-69
2022/05/20 00:25:55;;;;;;;7.83;1.80;;;15.30;99.90;;;;;;5073491;28;20633;-68
2022/05/20 00:28:26;;;;;;;4.63;1.43;;;15.20;99.90;;;;;;5073513;28;20234;-69
2022/05/20 00:30:57;;;;;;;3.70;1.20;;;15.20;99.90;;;;;;5072112;28;20544;-69
2022/05/20 00:33:26;;;;;;;11.13;1.50;;;15.20;99.90;;;;;;5073318;28;20179;-69
2022/05/20 00:35:54;;;;;;;5.03;1.50;;;15.20;99.90;;;;;;5073447;28;20645;-70
2022/05/20 00:38:22;;;;;;;6.20;1.80;;;15.40;99.90;;;;;;5073335;28;20713;-69
2022/05/20 00:40:51;;;;;;;7.20;1.57;;;15.20;99.90;;;;;;5073686;28;20210;-69
2022/05/20 00:43:34;;;;;;;5.57;1.37;;;15.50;99.90;;;;;;5073372;28;20622;-69
2022/05/20 00:46:08;;;;;;;5.67;1.73;;;15.60;99.90;;;;;;5073629;28;20180;-69
2022/05/20 00:48:36;;;;;;;10.50;1.40;;;15.70;99.90;;;;;;5073243;28;20263;-69
2022/05/20 00:51:09;;;;;;;6.33;1.43;;;15.70;99.90;;;;;;5073026;28;20258;-70
2022/05/20 00:53:42;;;;;;;5.50;1.50;;;15.80;99.90;;;;;;5071668;28;20551;-69
2022/05/20 00:56:15;;;;;;;8.93;1.93;;;15.70;99.90;;;;;;5073248;28;20264;-69
2022/05/20 00:58:43;;;;;;;7.97;1.80;;;16.00;99.90;;;;;;5071472;28;20237;-69
2022/05/20 01:01:11;;;;;;;12.07;1.70;;;16.10;99.90;;;;;;5072928;28;20223;-70
2022/05/20 01:03:39;;;;;;;4.60;1.50;;;16.40;99.90;;;;;;5073202;28;20183;-70
2022/05/20 01:06:09;;;;;;;4.97;1.47;;;16.30;99.90;;;;;;5072945;28;20264;-69
2022/05/20 01:08:39;;;;;;;7.07;1.53;;;16.30;99.90;;;;;;5071700;28;20547;-69
2022/05/20 01:11:06;;;;;;;4.23;1.43;;;16.30;99.90;;;;;;5072973;28;20179;-68
2022/05/20 01:13:35;;;;;;;5.83;1.60;;;16.30;99.90;;;;;;5072850;28;20172;-68
2022/05/20 01:16:07;;;;;;;5.13;1.47;;;16.40;99.90;;;;;;5071624;28;20187;-68
2022/05/20 01:18:38;;;;;;;3.83;1.40;;;16.40;99.90;;;;;;5072902;28;20247;-69
2022/05/20 01:21:05;;;;;;;7.43;1.07;;;16.40;99.90;;;;;;5073282;28;20258;-68
2022/05/20 01:23:35;;;;;;;4.30;1.20;;;16.30;99.90;;;;;;5072735;28;20180;-69
2022/05/20 01:26:03;;;;;;;6.43;1.60;;;16.30;99.90;;;;;;5072965;28;20176;-69
2022/05/20 01:28:32;;;;;;;5.27;1.80;;;16.20;99.90;;;;;;5072716;28;20202;-68
2022/05/20 01:31:09;;;;;;;5.30;1.67;;;16.30;99.90;;;;;;5072838;28;20221;-68
2022/05/20 01:33:40;;;;;;;4.30;1.30;;;16.30;99.90;;;;;;5072754;28;20649;-68
2022/05/20 01:36:13;;;;;;;7.30;1.60;;;16.50;99.90;;;;;;5072813;28;20172;-69
2022/05/20 01:38:41;;;;;;;6.10;1.67;;;16.40;99.90;;;;;;5072868;28;20184;-68
2022/05/20 01:41:11;;;;;;;6.47;1.43;;;16.40;99.90;;;;;;5072663;28;20276;-68
2022/05/20 01:43:44;;;;;;;6.40;1.47;;;16.30;99.90;;;;;;5072690;28;20659;-68
2022/05/20 01:46:11;;;;;;;6.13;1.40;;;16.30;99.90;;;;;;5071208;28;20180;-69
2022/05/20 01:49:02;;;;;;;4.63;1.40;;;16.30;99.90;;;;;;5072429;28;20183;-69
2022/05/20 01:51:37;;;;;;;5.97;1.40;;;16.30;99.90;;;;;;5051193;28;20203;-68
2022/05/20 01:54:14;;;;;;;4.67;1.20;;;16.50;99.90;;;;;;5072761;28;20690;-68
2022/05/20 01:56:54;;;;;;;5.30;1.43;;;16.40;99.90;;;;;;5072129;28;20230;-69
2022/05/20 01:59:31;;;;;;;4.53;1.20;;;16.40;99.90;;;;;;5072317;28;20225;-69
2022/05/20 02:02:17;;;;;;;4.20;0.93;;;16.50;99.90;;;;;;5071253;28;20563;-69
2022/05/20 02:04:50;;;;;;;3.13;1.20;;;16.50;99.90;;;;;;5076064;28;20172;-68
2022/05/20 02:07:25;;;;;;;7.73;1.70;;;16.40;99.90;;;;;;5076207;28;20654;-69
2022/05/20 02:10:24;;;;;;;6.60;1.20;;;16.50;99.90;;;;;;5074916;28;20609;-69
2022/05/20 02:12:56;;;;;;;3.13;1.00;;;16.50;99.90;;;;;;5068156;28;20188;-68
2022/05/20 02:15:55;;;;;;;4.30;1.20;;;16.50;99.90;;;;;;5075994;28;20226;-68
2022/05/20 02:18:46;;;;;;;8.47;1.37;;;16.60;99.90;;;;;;5076039;28;20179;-69
2022/05/20 02:21:17;;;;;;;4.83;1.13;;;16.70;99.90;;;;;;5075761;28;20219;-69
2022/05/20 02:23:50;;;;;;;5.90;1.63;;;16.70;99.90;;;;;;5076035;28;20180;-69
2022/05/20 02:26:22;;;;;;;6.87;1.03;;;16.70;99.90;;;;;;5075799;28;20176;-69
2022/05/20 02:29:01;;;;;;;5.87;1.40;;;16.70;99.90;;;;;;5075884;28;20352;-69
2022/05/20 02:31:40;;;;;;;6.90;1.60;;;16.60;99.90;;;;;;5075773;28;20175;-69
2022/05/20 02:34:07;;;;;;;2.37;0.90;;;16.90;99.90;;;;;;5075477;28;20172;-69
2022/05/20 02:36:35;;;;;;;6.27;1.70;;;17.20;99.90;;;;;;5075220;28;20180;-69
2022/05/20 02:39:15;;;;;;;4.23;1.43;;;17.40;99.90;;;;;;5075548;28;20215;-69
2022/05/20 02:41:47;;;;;;;5.40;1.10;;;17.40;99.90;;;;;;5075503;28;20661;-69
2022/05/20 02:44:16;;;;;;;5.03;1.33;;;17.50;99.90;;;;;;5076108;28;20257;-69
2022/05/20 02:46:48;;;;;;;5.47;1.30;;;17.40;99.90;;;;;;5075261;28;20229;-70
2022/05/20 02:49:16;;;;;;;2.73;1.07;;;17.60;99.90;;;;;;5075374;28;20188;-69
2022/05/20 02:51:44;;;;;;;4.50;1.17;;;17.80;99.90;;;;;;5075157;28;20178;-69
2022/05/20 02:54:11;;;;;;;3.70;1.13;;;17.70;99.90;;;;;;5075245;28;20172;-69
2022/05/20 02:56:39;;;;;;;4.27;1.23;;;17.40;99.90;;;;;;5074999;28;20183;-69
2022/05/20 03:04:40;;;;;;;6.43;1.47;;;17.00;99.90;;;;;;5075410;28;20585;-69
2022/05/20 03:07:08;;;;;;;4.73;1.37;;;17.00;99.90;;;;;;5075111;28;20171;-69
2022/05/20 03:09:35;;;;;;;9.70;1.40;;;17.10;99.90;;;;;;5075196;28;20221;-69
2022/05/20 03:12:03;;;;;;;6.53;1.27;;;17.00;99.90;;;;;;5075047;28;20176;-68
2022/05/20 03:14:32;;;;;;;5.63;1.10;;;17.00;99.90;;;;;;5074734;28;20766;-69
2022/05/20 03:17:03;;;;;;;4.80;1.27;;;17.10;99.90;;;;;;5074790;28;20168;-68
2022/05/20 03:19:31;;;;;;;3.47;1.03;;;17.10;99.90;;;;;;5074680;28;20220;-69
2022/05/20 03:22:06;;;;;;;5.43;1.43;;;17.20;99.90;;;;;;5074685;28;20215;-69
2022/05/20 03:24:35;;;;;;;8.60;1.67;;;17.20;99.90;;;;;;5074367;28;20191;-69
2022/05/20 03:27:03;;;;;;;5.40;1.40;;;17.20;99.90;;;;;;5074542;28;20173;-69
2022/05/20 03:29:32;;;;;;;4.67;1.30;;;17.10;99.90;;;;;;5074530;28;20198;-69
2022/05/20 03:32:00;;;;;;;4.20;1.20;;;17.10;99.90;;;;;;5074376;28;20587;-69
2022/05/20 03:34:28;;;;;;;8.43;1.43;;;17.00;99.90;;;;;;5074558;28;20178;-69
2022/05/20 03:36:57;;;;;;;8.97;1.17;;;17.00;99.90;;;;;;5074298;28;20541;-70
2022/05/20 03:39:25;;;;;;;5.03;1.20;;;17.00;99.90;;;;;;5074443;28;20259;-69
2022/05/20 03:41:53;;;;;;;4.33;1.00;;;17.00;99.90;;;;;;5074241;28;20211;-69
2022/05/20 03:44:21;;;;;;;7.10;1.90;;;17.00;99.90;;;;;;5074395;28;20236;-70
2022/05/20 03:46:54;;;;;;;6.43;1.17;;;16.90;99.90;;;;;;5074201;28;20179;-69
2022/05/20 03:49:24;;;;;;;5.73;1.43;;;16.90;99.90;;;;;;5074015;28;20173;-70
2022/05/20 03:51:54;;;;;;;7.30;1.73;;;16.80;99.90;;;;;;5072905;28;20660;-70
2022/05/20 03:54:24;;;;;;;4.43;1.60;;;16.80;99.90;;;;;;5073984;28;20175;-69
2022/05/20 03:56:53;;;;;;;4.67;1.70;;;16.60;99.90;;;;;;5073732;28;20212;-70
2022/05/20 03:59:20;;;;;;;9.27;2.23;;;16.50;99.90;;;;;;5074075;28;20630;-69
2022/05/20 04:01:57;;;;;;;11.60;2.40;;;16.30;99.90;;;;;;5073884;28;20218;-69
2022/05/20 04:04:26;;;;;;;5.37;2.00;;;16.20;99.90;;;;;;5073966;28;20163;-69
2022/05/20 04:06:54;;;;;;;7.97;1.97;;;16.30;99.90;;;;;;5074167;28;20229;-69
2022/05/20 04:09:22;;;;;;;8.57;2.33;;;16.20;99.90;;;;;;5073786;28;20211;-69
2022/05/20 04:11:53;;;;;;;8.80;2.43;;;16.10;99.90;;;;;;5084402;28;20186;-68
2022/05/20 04:14:21;;;;;;;6.63;2.30;;;16.00;99.90;;;;;;5089543;28;20641;-68
2022/05/20 04:16:54;;;;;;;9.03;2.07;;;16.00;99.90;;;;;;5092689;28;20201;-68
2022/05/20 04:19:24;;;;;;;6.33;2.40;;;16.00;99.90;;;;;;5090727;28;20537;-68
2022/05/20 04:21:58;;;;;;;7.30;2.60;;;16.10;99.90;;;;;;5093503;28;20339;-67
2022/05/20 04:24:26;;;;;;;8.33;3.47;;;16.20;99.90;;;;;;5092005;28;20178;-68
2022/05/20 04:26:54;;;;;;;9.20;2.50;;;16.30;99.90;;;;;;5093257;28;20186;-68
2022/05/20 04:29:21;;;;;;;11.40;2.20;;;16.30;99.90;;;;;;5093334;28;20190;-68
2022/05/20 04:31:51;;;;;;;7.60;2.17;;;16.40;99.90;;;;;;5093284;28;20187;-65
2022/05/20 04:34:20;;;;;;;6.77;2.03;;;16.50;99.90;;;;;;5093375;28;20179;-66
2022/05/20 04:36:48;;;;;;;13.50;2.77;;;16.50;99.90;;;;;;5092799;28;20232;-66
2022/05/20 04:39:16;;;;;;;9.07;2.80;;;16.50;99.90;;;;;;5093540;28;20180;-66
2022/05/20 04:47:23;;;;;;;13.07;2.83;;;16.40;99.90;;;;;;5092752;28;20201;-66
2022/05/20 04:49:52;;;;;;;12.10;2.33;;;16.40;99.90;;;;;;5093206;28;20185;-67
2022/05/20 04:52:20;;;;;;;14.13;2.67;;;16.30;99.90;;;;;;5093132;28;20179;-67
2022/05/20 04:54:54;;;;;;;12.37;2.50;;;16.20;99.90;;;;;;5093453;28;20180;-67
2022/05/20 04:57:46;;;;;;;7.40;2.10;;;16.20;99.90;;;;;;5093119;28;20223;-67
2022/05/20 05:00:17;;;;;;;7.17;2.10;;;16.10;99.90;;;;;;5088328;28;20187;-67
2022/05/20 05:02:46;;;;;;;7.27;1.90;;;16.10;99.90;;;;;;5093360;28;20178;-67
2022/05/20 05:05:16;;;;;;;7.93;2.27;;;16.10;99.90;;;;;;5092538;28;20183;-67
2022/05/20 05:07:48;;;;;;;9.80;2.33;;;16.10;99.90;;;;;;5092863;28;20667;-67
2022/05/20 05:10:19;;;;;;;8.93;2.00;;;16.20;99.90;;;;;;5093035;28;20179;-67
2022/05/20 05:12:47;;;;;;;9.17;2.77;;;16.20;99.90;;;;;;5093473;28;20179;-67
2022/05/20 05:15:16;;;;;;;11.13;2.83;;;16.20;99.90;;;;;;5093189;28;20263;-66
2022/05/20 05:20:34;;;;;;;12.77;2.30;;;16.50;99.90;;;;;;5092180;28;20181;-67
2022/05/20 05:23:03;;;;;;;9.27;2.67;;;16.60;99.90;;;;;;5092844;28;20183;-67
2022/05/20 05:25:34;;;;;;;8.70;2.77;;;16.60;99.90;;;;;;5092941;28;20214;-67
2022/05/20 05:28:02;;;;;;;9.80;2.13;;;16.60;99.90;;;;;;5092630;28;20171;-67
2022/05/20 05:30:30;;;;;;;11.77;2.90;;;16.60;99.90;;;;;;5092912;28;20187;-67
2022/05/20 05:32:58;;;;;;;5.33;2.13;;;16.70;99.90;;;;;;5092574;28;20667;-68
2022/05/20 05:35:28;;;;;;;9.87;1.63;;;16.60;99.90;;;;;;5090479;28;20286;-66
2022/05/20 05:37:56;;;;;;;10.47;2.10;;;16.60;99.90;;;;;;5094000;28;20259;-67
2022/05/20 05:40:26;;;;;;;8.90;2.30;;;16.50;99.90;;;;;;5096228;28;20644;-67
2022/05/20 05:42:55;;;;;;;4.90;1.43;;;16.50;99.90;;;;;;5097143;28;20518;-67
2022/05/20 05:45:24;;;;;;;9.13;1.67;;;16.60;99.90;;;;;;5096982;28;20175;-67
2022/05/20 05:48:06;;;;;;;10.53;2.17;;;16.60;99.90;;;;;;5096893;28;20190;-69
2022/05/20 05:50:39;;;;;;;8.63;1.87;;;16.60;99.90;;;;;;5096827;28;20257;-67
2022/05/20 05:53:14;;;;;;;7.10;1.63;;;16.60;99.90;;;;;;5096534;28;20237;-68
2022/05/20 05:55:45;;;;;;;7.00;1.73;;;16.60;99.90;;;;;;5096154;28;20256;-67
2022/05/20 05:58:14;;;;;;;8.40;2.57;;;16.60;99.90;;;;;;5096389;28;20223;-67
2022/05/20 06:00:43;;;;;;;11.37;2.10;;;16.60;99.90;;;;;;5096848;28;20281;-68
2022/05/20 06:03:14;;;;;;;7.17;1.77;;;16.60;99.90;;;;;;5095826;28;20221;-67
2022/05/20 06:05:46;;;;;;;9.73;1.67;;;16.60;99.90;;;;;;5095239;28;20221;-67
2022/05/20 06:08:14;;;;;;;8.67;1.73;;;16.60;99.90;;;;;;5095294;28;20229;-67
2022/05/20 06:10:43;;;;;;;10.50;1.83;;;16.50;99.90;;;;;;5095929;28;20276;-67
2022/05/20 06:13:12;;;;;;;6.80;1.67;;;16.50;99.90;;;;;;5093931;28;20186;-67
2022/05/20 06:15:40;;;;;;;11.30;1.97;;;16.50;99.90;;;;;;5095796;28;20187;-67
2022/05/20 06:18:08;;;;;;;9.10;2.47;;;16.40;99.90;;;;;;5095598;28;20184;-68
2022/05/20 06:20:36;;;;;;;8.30;2.03;;;16.40;99.90;;;;;;5096166;28;20259;-68
2022/05/20 06:23:04;;;;;;;5.60;1.90;;;16.30;99.90;;;;;;5095937;28;20626;-68
2022/05/20 06:25:32;;;;;;;8.83;1.90;;;16.30;99.90;;;;;;5095680;28;20186;-67
2022/05/20 06:28:12;;;;;;;10.47;1.90;;;16.20;99.90;;;;;;5094398;28;20266;-67
2022/05/20 06:30:40;;;;;;;9.53;2.03;;;16.20;99.90;;;;;;5095984;28;20258;-67
2022/05/20 06:33:08;;;;;;;9.37;2.70;;;16.10;99.90;;;;;;5095524;28;20194;-68
2022/05/20 06:41:08;;;;;;;6.10;2.00;;;15.90;99.90;;;;;;5095642;28;20222;-68
2022/05/20 06:43:38;;;;;;;10.70;2.80;;;15.90;99.90;;;;;;5095977;28;20178;-68
2022/05/20 06:46:06;;;;;;;11.77;2.23;;;15.80;99.90;;;;;;5095803;28;20171;-68
2022/05/20 06:48:49;;;;;;;10.47;2.87;;;15.70;99.90;;;;;;5094484;28;20182;-67
2022/05/20 06:51:23;;;;;;;4.80;1.80;;;15.50;99.90;;;;;;5095616;28;20529;-67
2022/05/20 06:53:52;;;;;;;10.10;2.00;;;15.40;99.90;;;;;;5095266;28;20515;-67
2022/05/20 06:56:22;;;;;;;12.97;2.67;;;15.30;99.90;;;;;;5094327;28;20206;-67
2022/05/20 06:58:50;;;;;;;6.27;1.70;;;15.20;99.90;;;;;;5095021;28;20226;-67
2022/05/20 07:01:18;;;;;;;9.00;2.33;;;15.10;99.90;;;;;;5095423;28;20214;-68
2022/05/20 07:03:46;;;;;;;13.67;2.70;;;15.00;99.90;;;;;;5095292;28;20241;-67
2022/05/20 07:06:16;;;;;;;13.43;2.33;;;15.00;99.90;;;;;;5094522;28;20755;-67
2022/05/20 07:08:53;;;;;;;12.90;2.60;;;15.00;99.90;;;;;;5093729;28;20558;-67
2022/05/20 07:11:23;;;;;;;13.97;2.73;;;15.10;99.90;;;;;;5094252;28;20202;-67
2022/05/20 07:13:54;;;;;;;10.67;2.80;;;15.10;99.90;;;;;;5094509;28;20190;-67
2022/05/20 07:16:23;;;;;;;10.43;2.50;;;15.10;99.90;;;;;;5094584;28;20245;-67
2022/05/20 07:18:51;;;;;;;10.43;2.80;;;15.10;99.90;;;;;;5090444;28;20182;-67
2022/05/20 07:21:20;;;;;;;8.90;2.40;;;15.10;99.90;;;;;;5093006;28;20683;-67
2022/05/20 07:23:48;;;;;;;14.53;3.03;;;15.00;99.90;;;;;;5094636;28;20194;-67
2022/05/20 07:26:17;;;;;;;11.30;2.87;;;15.10;99.90;;;;;;5094805;28;20187;-68
2022/05/20 07:28:46;;;;;;;12.20;3.33;;;15.10;99.90;;;;;;5094831;28;20576;-67
2022/05/20 07:31:15;;;;;;;13.03;2.93;;;15.10;99.90;;;;;;5094770;28;20687;-67
2022/05/20 07:33:43;;;;;;;9.47;3.33;;;15.10;99.90;;;;;;5094458;28;20720;-67
2022/05/20 07:36:11;;;;;;;14.60;3.20;;;15.00;99.90;;;;;;5094138;28;20198;-67
2022/05/20 07:38:38;;;;;;;10.83;3.20;;;15.00;99.90;;;;;;5094817;28;20232;-68
2022/05/20 07:41:06;;;;;;;11.30;3.17;;;15.10;99.90;;;;;;5094493;28;20263;-67
2022/05/20 07:43:34;;;;;;;16.30;3.10;;;15.10;99.90;;;;;;5094895;28;20202;-67
2022/05/20 07:46:03;;;;;;;11.10;2.53;;;15.20;99.90;;;;;;5094655;28;20555;-67
2022/05/20 07:48:31;;;;;;;8.33;2.43;;;15.30;99.90;;;;;;5093870;28;20181;-67
2022/05/20 07:51:08;;;;;;;5.60;2.03;;;15.30;99.90;;;;;;5094505;28;20183;-67
2022/05/20 07:53:39;;;;;;;8.40;2.53;;;15.40;99.90;;;;;;5094686;28;20183;-69
2022/05/20 07:56:27;;;;;;;8.97;2.37;;;15.40;99.90;;;;;;5094486;28;20248;-68
2022/05/20 07:59:09;;;;;;;11.83;2.20;;;15.20;99.90;;;;;;5092329;28;20584;-68
2022/05/20 08:01:40;;;;;;;9.60;2.40;;;15.00;99.90;;;;;;5092029;28;20305;-65
2022/05/20 08:07:03;;;;;;;11.87;1.90;;;14.80;99.90;;;;;;5093157;28;20189;-66
2022/05/20 08:09:31;;;;;;;11.13;2.33;;;14.60;99.90;;;;;;5092982;28;20262;-66
2022/05/20 08:11:59;;;;;;;9.83;2.17;;;14.50;99.90;;;;;;5093009;28;20183;-65
2022/05/20 08:14:28;;;;;;;8.13;2.23;;;14.50;99.90;;;;;;5092570;28;20183;-66
2022/05/20 08:17:00;;;;;;;12.93;3.00;;;14.40;99.90;;;;;;5092930;28;20329;-66
2022/05/20 08:19:29;;;;;;;11.77;2.47;;;14.40;99.90;;;;;;5092754;28;20178;-66
2022/05/20 08:21:57;;;;;;;13.37;2.57;;;14.40;99.90;;;;;;5092672;28;20699;-66
2022/05/20 08:24:25;;;;;;;12.53;3.00;;;14.30;99.90;;;;;;5092387;28;20179;-67
2022/05/20 08:26:53;;;;;;;9.23;2.07;;;14.30;99.90;;;;;;5092746;28;20182;-66
2022/05/20 08:29:21;;;;;;;11.07;2.30;;;14.20;99.90;;;;;;5090623;28;20191;-66
2022/05/20 08:31:49;;;;;;;14.33;3.30;;;14.20;99.90;;;;;;5092689;28;20187;-65
2022/05/20 08:34:17;;;;;;;10.53;2.90;;;14.20;99.90;;;;;;5092544;28;20179;-66
2022/05/20 08:36:44;;;;;;;11.00;2.63;;;14.30;99.90;;;;;;5092579;28;20186;-66
2022/05/20 08:39:14;;;;;;;11.70;3.30;;;14.30;99.90;;;;;;5092886;28;20263;-65
2022/05/20 08:41:48;;;;;;;13.77;3.23;;;14.30;99.90;;;;;;5093359;28;20246;-65
2022/05/20 08:44:20;;;;;;;15.03;2.90;;;14.20;99.90;;;;;;5091927;28;20178;-65
2022/05/20 08:46:49;;;;;;;12.03;4.57;;;14.20;99.90;;;;;;5082476;28;20694;-68
2022/05/20 08:49:25;;;;;;;9.37;3.43;;;14.20;99.90;;;;;;5092916;28;20190;-67
2022/05/20 08:51:54;;;;;;;12.13;3.97;;;14.10;99.90;;;;;;5093054;28;20222;-67
2022/05/20 08:54:22;;;;;;;18.73;3.80;;;14.10;99.90;;;;;;5089554;28;20167;-67
2022/05/20 08:56:51;;;;;;;16.30;3.73;;;14.10;99.90;;;;;;5091894;28;20225;-67
2022/05/20 08:59:22;;;;;;;15.87;3.70;;;14.00;99.90;;;;;;5091277;28;20652;-67
2022/05/20 09:01:52;;;;;;;12.97;3.60;;;14.10;99.90;;;;;;5091978;28;20219;-67
2022/05/20 09:04:24;;;;;;;14.73;3.83;;;14.00;99.90;;;;;;5091891;28;20268;-66
2022/05/20 09:07:08;;;;;;;13.43;3.00;;;14.00;99.90;;;;;;5092152;28;20172;-67
2022/05/20 09:09:50;;;;;;;10.80;3.47;;;14.10;99.90;;;;;;5092178;28;20349;-67
2022/05/20 09:12:37;;;;;;;14.57;4.33;;;14.00;99.90;;;;;;5091545;28;20544;-66
2022/05/20 09:18:14;;;;;;;18.43;3.87;;;14.10;99.90;;;;;;5092052;28;20663;-67
2022/05/20 09:20:59;;;;;;;13.47;3.77;;;14.00;99.90;;;;;;5071778;28;20207;-67
2022/05/20 09:23:27;;;;;;;11.37;3.40;;;14.00;99.90;;;;;;5083522;28;20213;-67
2022/05/20 09:26:12;;;;;;;14.93;3.43;;;14.00;99.90;;;;;;5099626;28;20182;-68
2022/05/20 09:28:42;;;;;;;8.80;2.70;;;14.00;99.90;;;;;;5107805;28;20235;-68
2022/05/20 09:31:15;;;;;;;12.93;3.03;;;13.90;99.90;;;;;;5090785;28;20208;-68
2022/05/20 09:33:54;;;;;;;13.33;3.50;;;13.90;99.90;;;;;;5091942;28;20669;-68
2022/05/20 09:37:00;;;;;;;9.77;3.73;;;13.90;99.90;;;;;;5091837;28;20304;-68
2022/05/20 09:39:49;;;;;;;10.97;3.53;;;13.90;99.90;;;;;;5085794;28;20186;-68
2022/05/20 09:42:28;;;;;;;14.37;3.63;;;13.90;99.90;;;;;;5090491;28;20632;-68
2022/05/20 09:45:03;;;;;;;12.30;3.83;;;13.90;99.90;;;;;;5091952;28;20678;-68
2022/05/20 09:47:50;;;;;;;10.07;2.93;;;13.90;99.90;;;;;;5091797;28;20202;-68
2022/05/20 09:50:35;;;;;;;7.63;2.33;;;13.90;99.90;;;;;;5091628;28;20542;-68
2022/05/20 09:53:22;;;;;;;11.20;2.60;;;13.90;99.90;;;;;;5091817;28;20331;-68
2022/05/20 09:55:49;;;;;;;9.97;2.80;;;13.90;99.90;;;;;;5091546;28;20179;-68
2022/05/20 09:58:30;;;;;;;10.23;2.60;;;13.90;99.90;;;;;;5091471;28;20579;-69
2022/05/20 10:01:02;;;;;;;10.37;2.60;;;13.90;99.90;;;;;;5091618;28;21000;-68
2022/05/20 10:03:40;;;;;;;11.20;3.03;;;13.90;99.90;;;;;;5091740;28;20259;-68
2022/05/20 10:06:41;;;;;;;7.53;2.70;;;13.90;99.90;;;;;;5091721;28;20652;-68
2022/05/20 10:09:18;;;;;;;4.93;2.17;;;13.80;99.90;;;;;;5091643;28;20660;-68
2022/05/20 10:11:56;;;;;;;8.00;2.30;;;13.80;99.90;;;;;;5091589;28;20232;-68
2022/05/20 10:15:04;;;;;;;9.40;2.60;;;13.70;99.90;;;;;;5091390;28;20167;-68
2022/05/20 10:18:03;;;;;;;6.73;1.97;;;13.70;99.90;;;;;;5091373;28;20206;-68
2022/05/20 10:20:43;;;;;;;7.07;1.87;;;13.70;99.90;;;;;;5090682;28;20186;-67
2022/05/20 10:23:33;;;;;;;6.70;1.77;;;13.60;99.90;;;;;;5091353;28;20186;-68
2022/05/20 10:26:39;;;;;;;7.87;2.40;;;13.60;99.90;;;;;;5095124;28;20640;-68
2022/05/20 10:32:35;;;;;;;4.87;1.60;;;13.50;99.90;;;;;;5095021;28;20221;-67
2022/05/20 10:35:21;;;;;;;7.87;2.17;;;13.40;99.90;;;;;;5094964;28;20982;-67
2022/05/20 10:38:32;;;;;;;3.80;1.73;;;13.30;99.90;;;;;;5094698;28;20183;-68
2022/05/20 10:41:38;;;;;;;5.03;2.40;;;13.30;99.90;;;;;;5049068;28;20207;-68
2022/05/20 10:50:34;;;;;;;7.93;2.43;;;13.20;99.90;;;;;;5094607;28;20606;-68
2022/05/20 10:53:38;;;;;;;5.20;2.10;;;13.20;99.90;;;;;;5094684;28;20222;-67
2022/05/20 10:56:24;;;;;;;5.43;2.20;;;13.10;99.90;;;;;;5093005;28;20318;-66
2022/05/20 10:59:13;;;;;;;9.43;4.50;;;13.10;99.90;;;;;;5094335;28;20233;-67
2022/05/20 11:01:43;;;;;;;10.53;4.67;;;13.10;99.90;;;;;;5094419;28;20577;-67
2022/05/20 11:04:28;;;;;;;9.97;3.00;;;13.10;99.90;;;;;;5093898;28;20192;-66
2022/05/20 11:07:20;;;;;;;12.13;5.07;;;13.10;99.90;;;;;;5094230;28;20235;-67
2022/05/20 11:09:55;;;;;;;8.20;2.37;;;13.10;99.90;;;;;;5093996;28;20178;-67
2022/05/20 11:12:53;;;;;;;9.57;3.13;;;13.10;99.90;;;;;;5094158;28;20169;-67
2022/05/20 11:15:47;;;;;;;9.63;2.80;;;13.10;99.90;;;;;;5093967;28;20186;-67
2022/05/20 11:18:30;;;;;;;9.83;2.87;;;13.10;99.90;;;;;;5094058;28;20517;-67
2022/05/20 11:21:06;;;;;;;8.13;2.50;;;13.10;99.90;;;;;;5092662;28;20238;-67
2022/05/20 11:24:07;;;;;;;10.60;2.63;;;13.10;99.90;;;;;;5094143;28;20659;-67
2022/05/20 11:26:49;;;;;;;9.37;2.60;;;13.20;99.90;;;;;;5093950;28;20206;-67
2022/05/20 11:29:29;;;;;;;8.10;3.03;;;13.10;99.90;;;;;;5092616;28;20757;-67
2022/05/20 11:32:05;;;;;;;7.43;2.90;;;13.10;99.90;;;;;;5093962;28;20644;-67
2022/05/20 11:34:42;;;;;;;5.53;2.53;;;13.10;99.90;;;;;;5093294;28;20255;-67
2022/05/20 11:37:25;;;;;;;8.73;3.03;;;13.10;99.90;;;;;;5093013;28;20603;-67
2022/05/20 11:40:08;;;;;;;10.17;2.87;;;13.10;99.90;;;;;;5093656;28;20179;-66
2022/05/20 11:43:03;;;;;;;4.77;2.67;;;13.10;99.90;;;;;;5093345;28;20218;-66
2022/05/20 11:45:48;;;;;;;4.67;2.20;;;13.10;99.90;;;;;;5093381;28;20602;-66
2022/05/20 11:48:34;;;;;;;9.77;2.23;;;13.20;99.90;;;;;;5093455;28;20197;-66
2022/05/20 11:51:04;;;;;;;8.83;2.63;;;13.20;99.90;;;;;;5093336;28;20247;-67
2022/05/20 11:53:45;;;;;;;7.30;2.97;;;13.20;99.90;;;;;;5093367;28;20590;-66
2022/05/20 11:56:20;;;;;;;6.63;3.30;;;13.20;99.90;;;;;;5093211;28;20186;-66
2022/05/20 11:58:57;;;;;;;8.83;2.93;;;13.20;99.90;;;;;;5093146;28;20735;-66
2022/05/20 12:01:27;;;;;;;6.20;2.57;;;13.20;99.90;;;;;;5092945;28;20221;-66
2022/05/20 12:04:08;;;;;;;6.70;2.70;;;13.20;99.90;;;;;;5093006;28;20167;-66
2022/05/20 12:07:03;;;;;;;10.37;2.73;;;13.30;99.90;;;;;;5092860;28;20174;-66
2022/05/20 12:09:39;;;;;;;5.23;2.37;;;13.20;99.90;;;;;;5091227;28;20245;-67
2022/05/20 12:12:20;;;;;;;5.97;2.23;;;13.20;99.90;;;;;;5093044;28;20265;-66
2022/05/20 12:15:09;;;;;;;4.03;2.17;;;13.20;99.90;;;;;;5092499;28;21016;-66
2022/05/20 12:17:52;;;;;;;6.53;2.63;;;13.20;99.90;;;;;;5092915;28;20203;-67
2022/05/20 12:26:00;;;;;;;12.13;3.03;;;13.20;99.90;;;;;;5092303;28;20248;-67
2022/05/20 12:28:27;;;;;;;9.23;2.60;;;13.20;99.90;;;;;;5092689;28;20179;-68
2022/05/20 12:31:24;;;;;;;7.67;2.73;;;13.20;99.90;;;;;;5092792;28;20193;-67
2022/05/20 12:34:00;;;;;;;3.70;1.87;;;13.20;99.90;;;;;;5072359;28;20188;-68
2022/05/20 12:36:31;;;;;;;8.83;2.67;;;13.20;99.90;;;;;;5072236;28;20822;-67
2022/05/20 12:39:11;;;;;;;8.70;2.57;;;13.20;99.90;;;;;;5072383;28;20189;-67
2022/05/20 12:42:00;;;;;;;7.60;2.07;;;13.20;99.90;;;;;;5078297;28;20247;-66
2022/05/20 12:44:35;;;;;;;7.20;2.90;;;13.20;99.90;;;;;;5090295;28;20176;-67
2022/05/20 12:47:06;;;;;;;7.30;2.20;;;13.20;99.90;;;;;;5092639;28;20273;-67
2022/05/20 12:49:36;;;;;;;6.53;2.20;;;13.20;99.90;;;;;;5093624;28;20202;-67
2022/05/20 12:52:19;;;;;;;7.10;2.07;;;13.10;99.90;;;;;;5093610;28;20179;-67
2022/05/20 12:54:52;;;;;;;7.77;2.20;;;13.10;99.90;;;;;;5093204;28;20179;-68
2022/05/20 12:57:27;;;;;;;9.13;1.90;;;13.10;99.90;;;;;;5092610;28;20213;-68
2022/05/20 13:00:02;;;;;;;5.53;2.70;;;13.10;99.90;;;;;;5093766;28;20550;-67
2022/05/20 13:02:34;;;;;;;5.73;2.03;;;13.10;99.90;;;;;;5093312;28;20743;-67
2022/05/20 13:05:20;;;;;;;8.30;2.60;;;13.10;99.90;;;;;;5093231;28;20204;-67
2022/05/20 13:07:48;;;;;;;6.13;1.83;;;13.10;99.90;;;;;;5093400;28;20178;-67
2022/05/20 13:10:42;;;;;;;5.80;2.00;;;13.10;99.90;;;;;;5094047;28;20182;-67
2022/05/20 13:13:14;;;;;;;9.00;2.40;;;13.20;99.90;;;;;;5091793;28;20267;-67
2022/05/20 13:15:47;;;;;;;6.53;2.00;;;13.20;99.90;;;;;;5092634;28;20203;-66
2022/05/20 13:18:22;;;;;;;14.10;2.00;;;13.20;99.90;;;;;;5092578;28;20352;-67
2022/05/20 13:20:53;;;;;;;7.93;2.00;;;13.20;99.90;;;;;;5093445;28;20205;-67
2022/05/20 13:23:26;;;;;;;8.40;2.27;;;13.10;99.90;;;;;;5092831;28;20193;-67
2022/05/20 13:25:54;;;;;;;10.33;3.10;;;13.10;99.90;;;;;;5092236;28;20191;-67
2022/05/20 13:28:33;;;;;;;7.70;2.70;;;13.10;99.90;;;;;;5093052;28;20658;-66
2022/05/20 13:31:07;;;;;;;8.27;2.87;;;13.10;99.90;;;;;;5092823;28;20178;-67
2022/05/20 13:33:36;;;;;;;7.57;2.23;;;13.10;99.90;;;;;;5093696;28;20173;-67
2022/05/20 13:36:06;;;;;;;7.57;2.67;;;13.00;99.90;;;;;;5090965;28;20193;-67
2022/05/20 13:38:40;;;;;;;6.00;1.87;;;13.00;99.90;;;;;;5091794;28;20541;-67
2022/05/20 13:41:09;;;;;;;11.47;2.40;;;13.00;99.90;;;;;;5092797;28;20206;-67
2022/05/20 13:43:39;;;;;;;6.30;2.60;;;13.00;99.90;;;;;;5093129;28;20212;-67
2022/05/20 13:49:13;;;;;;;7.33;2.80;;;13.00;99.90;;;;;;5093455;28;20189;-67
2022/05/20 13:51:48;;;;;;;8.50;2.40;;;13.00;99.90;;;;;;5092861;28;20174;-67
2022/05/20 13:54:31;;;;;;;9.87;2.37;;;12.90;99.90;;;;;;5083983;28;20179;-67
2022/05/20 13:57:00;;;;;;;5.67;1.80;;;12.90;99.90;;;;;;5092682;28;20222;-67
2022/05/20 13:59:30;;;;;;;5.57;2.53;;;12.90;99.90;;;;;;5094498;28;20651;-67
2022/05/20 14:02:10;;;;;;;7.53;2.17;;;12.90;99.90;;;;;;5096450;28;20249;-67